Mobridge Municipal Airport
KMBG : now visible

Airfield :











YOU CAN JOIN US ON...

 
LOGIN :

Register | Disclaimer

   EN    FR    IT 

 









Legend :    VFR   Marginal VFR   IFR   Intensive IFR   Very Intensive IFR
Visi :
Ceiling :
>= 8 km
>= 3000ft
5 to 8 km
1000 to 3000 ft
1500m to 5 km
500 to 1000 ft
800 to 1500m
200 to 500 ft
< 800m
< 200 ft
Symbols :   Thunderstorms  Fog  Heavy snow  Heavy precipitations  Wind > 20 kt






- Airport Elevation : 1716 ft


KMBG - Mobridge Municipal

CURRENT METAR :
  • 131435Z AUTO 32011KT 10SM SCT016 SCT027 OVC032 01/M02 A2992 RMK AO2 T00111022

EXPIRED METARs :
  • 131352Z AUTO 33009KT 10SM BKN021 OVC030 02/M03 A2989 RMK AO2 SLP142 T00171033
  • 131252Z AUTO 32009KT 10SM SCT060 BKN075 OVC095 02/M03 A2985 RMK AO2 SLP129 T00171033
  • 131152Z AUTO 33004KT 10SM FEW040 BKN070 OVC080 02/M03 A2982 RMK AO2 SLP118 T00171028 10022 21011 53021

TAF KMBG
Valid from the 13 at 12:00 until the 14 at 12:00 UTC


131120Z 1312/1412 32007KT P6SM OVC060
FM131500 33011G17KT P6SM BKN020
FM131800 33012G20KT P6SM SCT025
FM140100 32006KT P6SM SKC



MET'MAP, your aeronautical weather chart ! - Copyright ORBIFLY December 2007 - Disclaimer

ORBIFLY MET'MAP TEAM :

Programming & Development : Alexandra Zaïnal
Concept & Development : Baudouin d'Aumeries
Co-Development & Prog : Marc-Olivier Méhu
Technical & hardware support : Manuel Goepfert

Contact : metmap@orbifly.com




SOURCES & CREDITS :

   NOAA       Earth
Advisory